Time;durP1;ratioP1;P1;durP2;ratioP2;P2;SDS_P1;SDS_P2;PMS_P1;PMS_P2;Temp;Humidity;BMP_temperature;BMP_pressure;BME280_temperature;BME280_humidity;BME280_pressure;Samples;Min_cycle;Max_cycle;Signal;HPM_P1;HPM_P2
2023/09/19 00:00:42;;;;;;;6.95;1.65;;;;;;;15.37;100.00;100625.03;5047269;28;20103;-72
2023/09/19 00:03:09;;;;;;;7.57;1.52;;;;;;;15.42;100.00;100625.28;5052640;28;20056;-71
2023/09/19 00:05:44;;;;;;;6.97;1.65;;;;;;;15.33;100.00;100622.94;5057532;28;20064;-73
2023/09/19 00:08:15;;;;;;;9.68;2.42;;;;;;;15.24;100.00;100640.69;5033887;28;20080;-70
2023/09/19 00:10:43;;;;;;;18.23;2.92;;;;;;;15.25;100.00;100642.34;5053676;28;20052;-71
2023/09/19 00:13:13;;;;;;;14.43;2.67;;;;;;;15.25;100.00;100641.50;5054742;28;20058;-71
2023/09/19 00:15:50;;;;;;;12.13;2.65;;;;;;;15.33;100.00;100657.28;5056416;28;20555;-71
2023/09/19 00:18:21;;;;;;;12.10;2.50;;;;;;;15.31;100.00;100654.00;5051375;28;21095;-71
2023/09/19 00:20:51;;;;;;;9.80;2.53;;;;;;;15.23;100.00;100657.56;5052409;28;20105;-70
2023/09/19 00:23:19;;;;;;;10.52;2.70;;;;;;;15.24;100.00;100661.84;5060345;28;20056;-71
2023/09/19 00:25:46;;;;;;;15.05;2.83;;;;;;;15.24;100.00;100659.19;5048695;28;20484;-70
2023/09/19 00:28:14;;;;;;;10.85;2.08;;;;;;;15.28;100.00;100660.47;5052406;28;20505;-71
2023/09/19 00:30:43;;;;;;;8.20;1.90;;;;;;;15.34;100.00;100661.56;5052258;28;20136;-71
2023/09/19 00:33:11;;;;;;;10.60;2.10;;;;;;;15.29;100.00;100662.13;5046881;28;20064;-74
2023/09/19 00:35:38;;;;;;;8.90;2.05;;;;;;;15.29;100.00;100670.06;5060490;28;20324;-70
2023/09/19 00:38:06;;;;;;;12.32;2.35;;;;;;;15.25;100.00;100668.78;5072620;28;20074;-71
2023/09/19 00:41:04;;;;;;;9.30;1.80;;;;;;;15.25;100.00;100668.78;5082138;28;20040;-71
2023/09/19 00:44:29;;;;;;;10.70;2.30;;;;;;;-145.50;100.00;65435.88;5084425;28;20036;-71
2023/09/19 00:47:05;;;;;;;17.25;3.90;;;;;;;15.25;100.00;100668.78;5053592;28;20106;-71
2023/09/19 00:49:32;;;;;;;7.28;1.70;;;;;;;15.25;100.00;100668.78;5060618;28;20439;-71
2023/09/19 00:52:06;;;;;;;8.65;1.88;;;;;;;15.25;100.00;100668.78;5059458;28;20056;-71
2023/09/19 00:54:36;;;;;;;10.88;1.83;;;;;;;15.25;100.00;100668.78;5052907;28;20094;-71
2023/09/19 00:57:07;;;;;;;5.90;1.70;;;;;;;15.25;100.00;100668.78;5062977;28;20044;-70
2023/09/19 00:59:49;;;;;;;9.20;2.10;;;;;;;15.25;100.00;100668.78;5055872;28;20052;-71
2023/09/19 01:02:29;;;;;;;9.95;2.20;;;;;;;15.25;100.00;100668.78;5062385;28;20044;-71
2023/09/19 01:05:00;;;;;;;8.75;2.00;;;;;;;15.25;100.00;100668.78;5032707;28;20103;-71
2023/09/19 01:07:31;;;;;;;8.73;2.38;;;;;;;15.26;100.00;100693.38;5056211;28;20078;-71
2023/09/19 01:10:01;;;;;;;14.13;3.05;;;;;;;15.24;100.00;100690.91;5047098;28;20072;-71
2023/09/19 01:12:37;;;;;;;12.45;2.38;;;;;;;15.16;100.00;100686.50;5060285;28;20071;-71
2023/09/19 01:15:20;;;;;;;9.02;2.00;;;;;;;-145.50;100.00;65435.88;5065423;28;20084;-71
2023/09/19 01:18:10;;;;;;;10.73;2.20;;;;;;;-145.50;100.00;65435.88;5054723;28;20122;-71
2023/09/19 01:20:53;;;;;;;14.00;2.55;;;;;;;-145.50;100.00;65435.88;5050314;28;20344;-70
2023/09/19 01:23:23;;;;;;;13.32;2.70;;;;;;;15.13;100.00;100699.25;5049886;28;20444;-72
2023/09/19 01:26:21;;;;;;;15.30;3.60;;;;;;;15.11;100.00;100695.97;5053116;28;20459;-71
2023/09/19 01:29:29;;;;;;;15.10;3.08;;;;;;;15.11;100.00;100695.97;5056968;28;20528;-71
2023/09/19 01:32:15;;;;;;;10.02;2.47;;;;;;;15.11;100.00;100695.97;5054274;28;20129;-71
2023/09/19 01:35:03;;;;;;;14.70;2.85;;;;;;;15.11;100.00;100695.97;5042704;28;20142;-71
2023/09/19 01:37:31;;;;;;;11.85;2.40;;;;;;;14.96;100.00;100702.03;5056555;28;20056;-70
2023/09/19 01:40:19;;;;;;;10.00;2.33;;;;;;;15.02;100.00;100696.06;5054031;28;20053;-71
2023/09/19 01:42:56;;;;;;;15.60;3.03;;;;;;;14.97;100.00;100706.31;5056125;28;20143;-72
2023/09/19 01:45:57;;;;;;;13.48;3.17;;;;;;;14.93;100.00;100710.31;5052262;28;20057;-70
2023/09/19 01:48:47;;;;;;;16.77;2.25;;;;;;;14.92;100.00;100715.78;5058961;28;20048;-70
2023/09/19 01:51:21;;;;;;;16.67;2.80;;;;;;;14.93;100.00;100704.22;5054746;28;20109;-71
2023/09/19 01:54:12;;;;;;;9.55;1.92;;;;;;;14.98;100.00;100715.09;5053935;28;20447;-71
2023/09/19 01:56:59;;;;;;;12.68;2.47;;;;;;;14.84;100.00;85324.09;5039330;28;20436;-72
2023/09/19 01:59:45;;;;;;;9.32;2.38;;;;;;;-145.50;100.00;65435.88;5056085;28;20155;-71
2023/09/19 02:02:14;;;;;;;11.95;2.53;;;;;;;-145.50;100.00;65435.88;5052835;28;20562;-72
2023/09/19 02:04:41;;;;;;;14.00;2.47;;;;;;;-145.50;100.00;65435.88;5059706;28;20055;-71
2023/09/19 02:07:08;;;;;;;10.00;2.15;;;;;;;-145.50;100.00;65435.88;5055821;28;20104;-72
2023/09/19 02:09:35;;;;;;;11.68;2.22;;;;;;;-145.50;100.00;65435.88;5045422;28;20053;-71
2023/09/19 02:12:03;;;;;;;14.30;2.35;;;;;;;-145.50;100.00;65435.88;5058158;28;20708;-71
2023/09/19 02:14:30;;;;;;;;;;;;;;;-145.50;100.00;65435.88;5038628;28;20260;-71
2023/09/19 02:16:57;;;;;;;10.88;2.20;;;;;;;-145.50;100.00;65435.88;5046208;28;20389;-71
2023/09/19 02:19:23;;;;;;;12.70;2.17;;;;;;;-145.50;100.00;65435.88;5045076;28;20615;-71
2023/09/19 02:21:50;;;;;;;12.77;2.10;;;;;;;-145.50;100.00;65435.88;5053360;28;20060;-71
2023/09/19 02:24:16;;;;;;;14.85;2.70;;;;;;;-145.50;100.00;65435.88;5052661;28;20201;-71
2023/09/19 02:26:43;;;;;;;13.38;2.72;;;;;;;-145.50;100.00;65435.88;5042865;28;20409;-71
2023/09/19 02:29:12;;;;;;;13.25;2.33;;;;;;;-145.50;100.00;65435.88;5037654;28;20249;-72
2023/09/19 02:31:39;;;;;;;15.32;2.60;;;;;;;-145.50;100.00;65435.88;5043365;28;20052;-70
2023/09/19 02:34:06;;;;;;;14.77;2.63;;;;;;;-145.50;100.00;65435.88;5055083;28;20045;-72
2023/09/19 02:36:33;;;;;;;14.13;2.25;;;;;;;-145.50;100.00;65435.88;5056396;28;20052;-71
2023/09/19 02:39:00;;;;;;;14.73;2.00;;;;;;;-145.50;100.00;65435.88;5062296;28;20057;-73
2023/09/19 02:41:29;;;;;;;14.75;2.63;;;;;;;-145.50;100.00;65435.88;5041036;28;20425;-71
2023/09/19 02:43:56;;;;;;;10.40;2.25;;;;;;;-145.50;100.00;65435.88;5054957;28;20649;-72
2023/09/19 02:46:23;;;;;;;19.30;3.03;;;;;;;-145.50;100.00;65435.88;5062953;28;20335;-72
2023/09/19 02:48:50;;;;;;;12.77;2.20;;;;;;;14.96;100.00;100725.81;5052036;28;20489;-72
2023/09/19 02:51:18;;;;;;;15.20;2.72;;;;;;;14.96;100.00;100725.81;5059751;28;20053;-71
2023/09/19 02:53:47;;;;;;;10.13;2.38;;;;;;;14.28;100.00;100742.41;5047886;28;20056;-72
2023/09/19 02:56:15;;;;;;;13.20;2.45;;;;;;;14.19;100.00;100739.81;5038828;28;20132;-71
2023/09/19 02:58:42;;;;;;;12.82;2.17;;;;;;;14.21;100.00;100743.09;5042544;28;20118;-72
2023/09/19 03:01:11;;;;;;;16.77;2.55;;;;;;;14.20;100.00;100735.34;5053252;28;20519;-71
2023/09/19 03:03:40;;;;;;;18.05;2.55;;;;;;;14.12;100.00;100738.84;5059340;28;20053;-72
2023/09/19 03:06:08;;;;;;;8.35;2.33;;;;;;;14.04;100.00;100744.16;5048377;28;20143;-71
2023/09/19 03:08:36;;;;;;;7.65;1.92;;;;;;;14.00;100.00;100748.94;5053001;28;20090;-71
2023/09/19 03:11:07;;;;;;;12.73;2.13;;;;;;;13.97;100.00;100751.09;5029486;28;20056;-72
2023/09/19 03:13:36;;;;;;;17.02;2.58;;;;;;;13.98;100.00;100748.28;5060753;28;20413;-70
2023/09/19 03:16:05;;;;;;;11.13;2.40;;;;;;;14.02;100.00;100746.94;5054752;28;20417;-72
2023/09/19 03:18:34;;;;;;;11.70;2.10;;;;;;;13.99;100.00;100757.81;5060051;28;20068;-71
2023/09/19 03:21:01;;;;;;;12.05;2.50;;;;;;;13.97;100.00;100746.63;5057817;28;20056;-71
2023/09/19 03:23:28;;;;;;;10.63;2.60;;;;;;;13.90;100.00;100761.50;5047701;28;20067;-72
2023/09/19 03:25:58;;;;;;;12.00;2.00;;;;;;;13.82;100.00;100749.16;5057279;28;20153;-72
2023/09/19 03:28:25;;;;;;;11.07;2.28;;;;;;;13.77;100.00;100753.28;5043270;28;20080;-73
2023/09/19 03:31:02;;;;;;;12.95;2.85;;;;;;;13.77;100.00;100755.94;5063097;28;20052;-72
2023/09/19 03:33:31;;;;;;;10.40;1.98;;;;;;;13.76;100.00;100751.63;5042604;28;20080;-72
2023/09/19 03:35:58;;;;;;;9.48;2.10;;;;;;;13.70;100.00;100747.03;5052122;28;20057;-73
2023/09/19 03:38:25;;;;;;;10.52;2.10;;;;;;;13.69;100.00;100737.50;5039801;28;20053;-72
2023/09/19 03:40:52;;;;;;;11.95;2.05;;;;;;;13.70;100.00;100739.13;5057166;28;20410;-72
2023/09/19 03:43:19;;;;;;;9.00;2.88;;;;;;;13.62;100.00;100748.72;5061859;28;20489;-72
2023/09/19 03:45:50;;;;;;;10.30;2.22;;;;;;;13.63;100.00;100745.09;5048374;28;20049;-72
2023/09/19 03:48:17;;;;;;;9.90;2.00;;;;;;;13.63;100.00;100745.09;5038636;28;20480;-71
2023/09/19 03:51:42;;;;;;;13.68;2.08;;;;;;;-145.50;100.00;65435.88;5041646;28;20048;-73
2023/09/19 03:55:09;;;;;;;20.75;3.70;;;;;;;-145.50;100.00;65435.88;5060713;28;20048;-72
2023/09/19 03:58:39;;;;;;;12.55;2.28;;;;;;;-145.50;100.00;65435.88;5051450;28;20048;-71
2023/09/19 04:01:27;;;;;;;10.95;2.17;;;;;;;13.63;100.00;100745.09;5055698;28;20063;-72
2023/09/19 04:03:54;;;;;;;11.40;2.38;;;;;;;13.57;100.00;100737.03;5053088;28;20135;-71
2023/09/19 04:06:22;;;;;;;12.35;2.03;;;;;;;13.57;100.00;100737.03;5045743;28;20072;-72
2023/09/19 04:08:48;;;;;;;13.13;2.25;;;;;;;13.57;100.00;100737.03;5054870;28;20474;-72
2023/09/19 04:11:15;;;;;;;7.90;1.80;;;;;;;-145.50;100.00;65435.88;5060858;28;20076;-73
2023/09/19 04:13:42;;;;;;;10.50;1.80;;;;;;;13.56;100.00;100744.09;5049230;28;20524;-72
2023/09/19 04:16:10;;;;;;;12.20;1.98;;;;;;;13.50;100.00;100746.59;5043307;28;20477;-72
2023/09/19 04:18:38;;;;;;;10.18;2.08;;;;;;;13.54;100.00;100743.44;5058246;28;20471;-72
2023/09/19 04:21:05;;;;;;;10.77;2.10;;;;;;;13.48;100.00;100756.47;5054683;28;20131;-73
2023/09/19 04:23:32;;;;;;;11.82;1.90;;;;;;;13.52;100.00;100763.06;5060494;28;20441;-72
2023/09/19 04:25:59;;;;;;;14.23;3.03;;;;;;;13.48;100.00;100759.13;5036758;28;20482;-72
2023/09/19 04:28:27;;;;;;;10.02;1.88;;;;;;;13.50;100.00;100768.50;5048401;28;20045;-72
2023/09/19 04:30:55;;;;;;;10.95;1.80;;;;;;;13.55;100.00;100778.56;5043029;28;20913;-73
2023/09/19 04:33:22;;;;;;;8.25;1.70;;;;;;;13.55;100.00;100800.44;5041457;28;20053;-72
2023/09/19 04:35:51;;;;;;;9.05;1.80;;;;;;;13.54;100.00;100792.72;5058160;28;20125;-72
2023/09/19 04:38:19;;;;;;;7.63;1.70;;;;;;;13.58;100.00;100792.22;5056886;28;20087;-72
2023/09/19 04:40:46;;;;;;;8.68;2.13;;;;;;;13.54;100.00;100796.16;5061753;28;20061;-72
2023/09/19 04:43:13;;;;;;;12.35;1.77;;;;;;;13.60;100.00;100802.56;5053324;28;20044;-72
2023/09/19 04:45:42;;;;;;;11.10;1.83;;;;;;;13.59;100.00;100808.84;5049965;28;20367;-72
2023/09/19 04:48:10;;;;;;;12.05;2.10;;;;;;;13.51;100.00;100795.69;5062623;28;20068;-73
2023/09/19 04:50:37;;;;;;;10.65;1.85;;;;;;;13.60;100.00;100805.22;5062534;28;20505;-73
2023/09/19 04:53:04;;;;;;;10.52;2.10;;;;;;;13.56;100.00;100807.34;5059119;28;20109;-71
2023/09/19 04:55:32;;;;;;;11.67;2.30;;;;;;;13.52;100.00;100810.50;5061733;28;20056;-73
2023/09/19 04:57:59;;;;;;;12.93;2.40;;;;;;;13.55;100.00;100810.19;5054494;28;20282;-73
2023/09/19 05:00:29;;;;;;;10.70;2.22;;;;;;;13.54;100.00;100819.88;5049421;28;20056;-73
2023/09/19 05:02:56;;;;;;;12.30;2.13;;;;;;;13.54;100.00;100827.78;5062987;28;20603;-72
2023/09/19 05:05:25;;;;;;;11.27;1.77;;;;;;;13.60;100.00;100819.25;5051519;28;20132;-73
2023/09/19 05:07:54;;;;;;;8.55;2.00;;;;;;;13.59;100.00;100825.47;5065343;28;20055;-70
2023/09/19 05:10:21;;;;;;;9.90;2.25;;;;;;;13.53;100.00;100810.34;5057241;28;20057;-73
2023/09/19 05:12:51;;;;;;;8.25;1.90;;;;;;;13.57;100.00;100822.19;5056236;28;20052;-72
2023/09/19 05:15:18;;;;;;;10.65;1.90;;;;;;;13.56;100.00;100827.63;5070295;28;20135;-71
2023/09/19 05:17:54;;;;;;;13.85;1.92;;;;;;;13.59;100.00;100822.84;5063299;28;20044;-72
2023/09/19 05:20:32;;;;;;;9.25;1.77;;;;;;;13.59;100.00;100816.75;5055342;28;20611;-73
2023/09/19 05:23:05;;;;;;;9.60;1.73;;;;;;;13.59;100.00;100822.03;5055690;28;20091;-76
2023/09/19 05:25:32;;;;;;;15.98;2.50;;;;;;;13.59;100.00;100811.50;5055317;28;20084;-72
2023/09/19 05:28:00;;;;;;;8.02;1.60;;;;;;;13.57;100.00;100811.66;5059932;28;20575;-71
2023/09/19 05:30:27;;;;;;;10.82;1.80;;;;;;;13.58;100.00;100815.09;5050939;28;20056;-71
2023/09/19 05:32:54;;;;;;;11.85;1.90;;;;;;;13.64;100.00;100820.53;5054580;28;20476;-72
2023/09/19 05:35:22;;;;;;;12.05;1.63;;;;;;;13.61;100.00;100805.06;5057534;28;20310;-70
2023/09/19 05:37:52;;;;;;;7.00;2.28;;;;;;;13.68;100.00;100818.41;5060580;28;20562;-71
2023/09/19 05:40:19;;;;;;;8.50;1.52;;;;;;;13.62;100.00;100808.50;5046015;28;20048;-71
2023/09/19 05:42:46;;;;;;;9.90;1.90;;;;;;;13.70;100.00;100818.22;5065416;28;20135;-72
2023/09/19 05:45:14;;;;;;;10.80;1.90;;;;;;;13.71;100.00;100833.06;5053989;28;20477;-71
2023/09/19 05:47:45;;;;;;;12.40;1.90;;;;;;;13.74;100.00;100830.06;5047778;28;20126;-71
2023/09/19 05:50:12;;;;;;;6.32;1.80;;;;;;;13.72;100.00;100832.06;5052566;28;20052;-70
2023/09/19 05:52:38;;;;;;;10.25;2.53;;;;;;;13.76;100.00;100831.56;5050035;28;20057;-71
2023/09/19 05:55:07;;;;;;;17.33;3.00;;;;;;;13.75;100.00;100827.28;5053277;28;20138;-70
2023/09/19 05:57:34;;;;;;;12.80;1.88;;;;;;;13.75;100.00;100822.00;5046014;28;20052;-70
2023/09/19 06:00:01;;;;;;;10.60;1.83;;;;;;;13.76;100.00;100820.19;5048571;28;20056;-71
2023/09/19 06:02:29;;;;;;;9.88;2.35;;;;;;;13.72;100.00;100813.59;5052409;28;20051;-70
2023/09/19 06:04:56;;;;;;;;;;;;;;;13.78;100.00;100831.38;5052199;28;20091;-71
2023/09/19 06:07:26;;;;;;;10.80;2.08;;;;;;;13.77;100.00;100827.94;5049534;28;19924;-71
2023/09/19 06:09:55;;;;;;;12.32;2.25;;;;;;;13.74;100.00;100825.66;5039436;28;20505;-72
2023/09/19 06:12:22;;;;;;;12.80;2.00;;;;;;;13.77;100.00;100833.19;5057711;28;20052;-71
2023/09/19 06:14:49;;;;;;;7.10;2.00;;;;;;;13.84;100.00;100834.19;5044388;28;20063;-72
2023/09/19 06:17:17;;;;;;;14.32;3.40;;;;;;;13.82;100.00;100835.34;5060633;28;20056;-71
2023/09/19 06:19:47;;;;;;;10.95;2.17;;;;;;;13.87;100.00;100845.38;5042308;28;20295;-72
2023/09/19 06:22:17;;;;;;;10.18;2.38;;;;;;;13.88;100.00;100839.09;5041955;28;20048;-71
2023/09/19 06:24:46;;;;;;;7.40;1.67;;;;;;;13.88;100.00;100832.03;5053924;28;20132;-72
2023/09/19 06:27:13;;;;;;;9.88;2.13;;;;;;;13.87;100.00;100858.56;5054998;28;20122;-72
2023/09/19 06:29:40;;;;;;;13.55;2.25;;;;;;;13.88;100.00;100833.84;5055977;28;20533;-71
2023/09/19 06:32:10;;;;;;;9.10;1.85;;;;;;;13.92;100.00;100841.25;5046083;28;20535;-72
2023/09/19 06:34:38;;;;;;;11.60;1.77;;;;;;;13.90;100.00;100843.25;5055350;28;20052;-71
2023/09/19 06:37:06;;;;;;;7.85;1.77;;;;;;;13.96;100.00;100852.31;5041486;28;20092;-71
2023/09/19 06:39:32;;;;;;;9.97;2.20;;;;;;;13.94;100.00;100846.38;5053169;28;20398;-71
2023/09/19 06:42:01;;;;;;;8.18;2.33;;;;;;;14.03;100.00;100866.44;5050731;28;20055;-72
2023/09/19 06:44:29;;;;;;;19.60;3.45;;;;;;;14.07;100.00;100859.03;5054283;28;20052;-72
2023/09/19 06:46:56;;;;;;;12.13;2.20;;;;;;;14.07;100.00;100859.03;5045909;28;20705;-71
2023/09/19 06:49:25;;;;;;;9.98;2.20;;;;;;;14.08;100.00;100853.59;5047082;28;20098;-72
2023/09/19 06:51:54;;;;;;;12.00;2.10;;;;;;;14.17;100.00;100852.59;5048374;28;20136;-72
2023/09/19 06:54:21;;;;;;;10.98;2.05;;;;;;;14.21;100.00;100864.44;5050347;28;20060;-72
2023/09/19 06:56:47;;;;;;;11.43;2.45;;;;;;;14.19;100.00;100852.38;5047793;28;20753;-72
2023/09/19 06:59:14;;;;;;;15.65;2.47;;;;;;;14.19;100.00;100855.88;5059621;28;20064;-71
2023/09/19 07:01:44;;;;;;;11.85;2.40;;;;;;;14.22;100.00;100849.44;5029885;28;20286;-72
2023/09/19 07:04:12;;;;;;;10.35;2.30;;;;;;;14.30;100.00;100845.94;5055152;28;20052;-72
2023/09/19 07:06:40;;;;;;;14.43;2.38;;;;;;;14.30;100.00;100853.84;5056518;28;20060;-73
2023/09/19 07:09:08;;;;;;;7.90;2.20;;;;;;;14.30;100.00;100854.69;5058091;28;20057;-72
2023/09/19 07:11:34;;;;;;;12.35;2.05;;;;;;;14.34;100.00;100855.16;5047814;28;21039;-72
2023/09/19 07:14:03;;;;;;;12.82;2.50;;;;;;;14.32;100.00;100860.59;5052923;28;20077;-72
2023/09/19 07:16:29;;;;;;;10.32;1.95;;;;;;;14.42;100.00;100861.22;5059646;28;20152;-74
2023/09/19 07:18:57;;;;;;;12.85;2.08;;;;;;;14.43;100.00;100862.88;5055249;28;20048;-74
2023/09/19 07:21:24;;;;;;;15.93;2.40;;;;;;;14.43;100.00;100862.06;5052415;28;20052;-72
2023/09/19 07:23:50;;;;;;;14.35;2.42;;;;;;;14.44;100.00;100861.06;5049611;28;20056;-73
2023/09/19 07:26:19;;;;;;;9.00;1.90;;;;;;;14.50;100.00;100881.47;5067130;28;20041;-72
2023/09/19 07:28:45;;;;;;;13.30;2.40;;;;;;;14.53;100.00;100872.44;5045387;28;20521;-72
2023/09/19 07:31:14;;;;;;;12.50;2.20;;;;;;;14.62;100.00;100869.63;5052090;28;20051;-71
2023/09/19 07:33:41;;;;;;;18.70;2.65;;;;;;;14.67;100.00;100873.56;5060784;28;20052;-72
2023/09/19 07:36:10;;;;;;;13.85;2.20;;;;;;;14.72;100.00;100869.41;5044683;28;20052;-73
2023/09/19 07:38:37;;;;;;;14.02;2.33;;;;;;;14.75;100.00;100869.03;5050112;28;20057;-72
2023/09/19 07:41:05;;;;;;;9.23;1.80;;;;;;;14.80;100.00;100861.44;5033172;28;20147;-72
2023/09/19 07:43:32;;;;;;;11.52;2.10;;;;;;;14.90;100.00;100873.59;5040357;28;20049;-72
2023/09/19 07:46:03;;;;;;;11.93;2.17;;;;;;;14.92;100.00;100868.97;5043412;28;20119;-72
2023/09/19 07:48:30;;;;;;;14.38;2.75;;;;;;;14.95;100.00;100868.59;5050616;28;20063;-73
2023/09/19 07:51:07;;;;;;;15.10;2.00;;;;;;;15.02;100.00;100874.84;5053996;28;20048;-73
2023/09/19 07:53:35;;;;;;;12.50;2.58;;;;;;;15.00;100.00;100871.56;5044875;28;20079;-72
2023/09/19 07:56:03;;;;;;;14.98;2.90;;;;;;;15.05;100.00;100886.88;5044330;28;20040;-73
2023/09/19 07:58:31;;;;;;;;;;;;;;;15.05;100.00;100905.38;5041072;28;20513;-73
2023/09/19 08:01:03;;;;;;;16.45;2.60;;;;;;;15.08;100.00;100883.91;5054148;28;20529;-73
2023/09/19 08:03:30;;;;;;;6.75;1.70;;;;;;;15.11;100.00;100876.47;5044604;28;20461;-73
2023/09/19 08:05:57;;;;;;;12.60;2.05;;;;;;;15.11;100.00;100883.53;5050316;28;20045;-73
2023/09/19 08:08:25;;;;;;;12.93;2.60;;;;;;;15.17;100.00;100883.69;5040872;28;20053;-72
2023/09/19 08:10:58;;;;;;;16.75;2.53;;;;;;;15.29;100.00;100878.81;5035983;28;20476;-73
2023/09/19 08:13:25;;;;;;;15.57;2.60;;;;;;;15.33;100.00;100887.22;5051107;28;20048;-73
2023/09/19 08:15:55;;;;;;;11.23;2.10;;;;;;;15.31;100.00;100883.91;5041824;28;20056;-73
2023/09/19 08:18:22;;;;;;;12.43;2.35;;;;;;;15.29;100.00;100881.47;5050679;28;20077;-73
2023/09/19 08:20:51;;;;;;;16.13;3.10;;;;;;;15.39;100.00;100878.59;5040519;28;20060;-73
2023/09/19 08:23:21;;;;;;;12.38;3.15;;;;;;;15.35;100.00;100890.50;5044538;28;20051;-73
2023/09/19 08:25:47;;;;;;;15.07;2.30;;;;;;;15.35;100.00;100882.56;5042769;28;20079;-73
2023/09/19 08:28:18;;;;;;;12.55;2.70;;;;;;;15.45;100.00;100880.50;5051615;28;20106;-73
2023/09/19 08:30:46;;;;;;;11.10;3.03;;;;;;;15.59;100.00;100892.13;5049006;28;20583;-73
2023/09/19 08:33:15;;;;;;;14.90;2.80;;;;;;;15.66;100.00;100892.22;5045895;28;20068;-73
2023/09/19 08:35:42;;;;;;;16.92;2.50;;;;;;;15.68;100.00;100899.00;5044243;28;20059;-73
2023/09/19 08:38:10;;;;;;;12.13;2.58;;;;;;;15.75;100.00;100918.47;5036238;28;21042;-73
2023/09/19 08:40:40;;;;;;;9.60;2.45;;;;;;;15.88;100.00;100891.44;5050129;28;20086;-74
2023/09/19 08:43:07;;;;;;;13.43;2.55;;;;;;;15.94;100.00;100880.13;5051515;28;20151;-74
2023/09/19 08:45:34;;;;;;;16.10;2.65;;;;;;;16.01;100.00;100881.06;5040328;28;20048;-74
2023/09/19 08:48:20;;;;;;;16.55;2.65;;;;;;;16.12;100.00;100895.66;5049712;28;20057;-73
2023/09/19 08:50:51;;;;;;;16.45;3.00;;;;;;;16.08;100.00;100901.50;5039474;28;20528;-74
2023/09/19 08:53:29;;;;;;;10.68;2.58;;;;;;;16.16;100.00;100888.19;5047940;28;20084;-73
2023/09/19 08:55:57;;;;;;;8.77;2.20;;;;;;;16.17;100.00;100892.44;5045414;28;20101;-73
2023/09/19 08:58:33;;;;;;;11.48;2.22;;;;;;;16.27;100.00;100885.09;5052804;28;20052;-73
2023/09/19 09:01:01;;;;;;;11.68;2.25;;;;;;;16.29;100.00;100898.13;5038781;28;20644;-72
2023/09/19 09:03:33;;;;;;;13.80;2.20;;;;;;;16.40;100.00;100884.44;5044359;28;20056;-72
2023/09/19 09:06:01;;;;;;;16.08;2.63;;;;;;;16.50;100.00;100877.03;5044337;28;20047;-73
2023/09/19 09:08:31;;;;;;;15.20;2.70;;;;;;;16.64;100.00;100885.13;5041234;28;20130;-72
2023/09/19 09:10:58;;;;;;;15.80;2.55;;;;;;;16.74;100.00;100883.88;5053117;28;20053;-72
2023/09/19 09:13:26;;;;;;;17.55;2.30;;;;;;;16.82;100.00;100888.25;5036535;28;20493;-72
2023/09/19 09:15:54;;;;;;;11.95;2.78;;;;;;;16.85;100.00;100890.53;5052095;28;20044;-73
2023/09/19 09:18:21;;;;;;;12.60;2.10;;;;;;;17.04;100.00;100878.53;5031291;28;20439;-72
2023/09/19 09:20:48;;;;;;;9.27;2.13;;;;;;;17.12;100.00;100883.69;5041563;28;20048;-72
2023/09/19 09:23:15;;;;;;;19.67;2.28;;;;;;;17.10;100.00;100863.69;5048120;28;20433;-72
2023/09/19 09:25:54;;;;;;;12.48;2.15;;;;;;;17.14;100.00;100864.97;5042257;28;20592;-72
2023/09/19 09:28:26;;;;;;;14.27;2.15;;;;;;;17.28;100.00;100879.97;5054270;28;20048;-73
2023/09/19 09:30:54;;;;;;;14.32;2.70;;;;;;;17.47;100.00;100872.41;5042217;28;20064;-73
2023/09/19 09:33:21;;;;;;;14.50;2.75;;;;;;;17.47;97.72;100877.72;5041506;28;20411;-72
2023/09/19 09:35:52;;;;;;;15.75;2.55;;;;;;;17.57;99.08;100881.69;5043692;28;20053;-72
2023/09/19 09:38:27;;;;;;;11.30;2.22;;;;;;;17.61;96.99;100865.41;5057132;28;20052;-72
2023/09/19 09:41:06;;;;;;;14.02;2.95;;;;;;;17.74;96.29;100878.78;5044585;28;20056;-74
2023/09/19 09:43:38;;;;;;;12.13;2.13;;;;;;;17.76;95.38;100885.50;5049314;28;20052;-73
2023/09/19 09:49:27;;;;;;;13.50;2.38;;;;;;;18.14;96.43;100865.78;5046455;28;20079;-73
2023/09/19 09:52:07;;;;;;;9.40;2.30;;;;;;;17.91;93.54;100866.84;5054665;28;20107;-71
2023/09/19 09:54:37;;;;;;;12.00;2.63;;;;;;;17.89;94.98;100874.19;5050316;28;20489;-72
2023/09/19 09:57:23;;;;;;;8.88;2.10;;;;;;;17.92;92.50;100879.13;5047850;28;20345;-73
2023/09/19 09:59:53;;;;;;;12.65;2.33;;;;;;;17.80;92.50;100891.25;5043201;28;20056;-72
2023/09/19 10:02:28;;;;;;;9.25;2.05;;;;;;;17.78;96.65;100866.75;5050579;28;20089;-72
2023/09/19 10:05:21;;;;;;;11.80;2.22;;;;;;;17.72;94.85;100878.97;5039146;28;20044;-72
2023/09/19 10:07:52;;;;;;;12.40;2.47;;;;;;;18.01;94.42;100876.31;5051206;28;20057;-72
2023/09/19 10:10:43;;;;;;;9.48;2.08;;;;;;;18.04;92.93;100865.34;5043746;28;20060;-72
2023/09/19 10:13:21;;;;;;;12.80;2.75;;;;;;;18.23;92.07;100869.94;5052568;28;20040;-72
2023/09/19 10:15:50;;;;;;;10.90;2.45;;;;;;;18.40;92.59;100856.34;5053485;28;20458;-71
2023/09/19 10:18:21;;;;;;;12.75;2.50;;;;;;;18.40;90.43;100859.00;5064717;28;20127;-71
2023/09/19 10:20:51;;;;;;;12.82;2.42;;;;;;;18.48;89.88;100850.84;5057866;28;20530;-71
2023/09/19 10:23:23;;;;;;;8.95;2.45;;;;;;;18.63;88.08;100859.50;5052737;28;20044;-71
2023/09/19 10:25:52;;;;;;;9.55;2.13;;;;;;;18.71;89.23;100866.47;5048422;28;20107;-71
2023/09/19 10:28:23;;;;;;;11.48;2.30;;;;;;;18.98;89.66;100846.16;5048503;28;20507;-71
2023/09/19 10:30:53;;;;;;;11.43;2.40;;;;;;;18.70;86.58;100849.72;5051957;28;20082;-72
2023/09/19 10:33:22;;;;;;;10.55;2.17;;;;;;;19.09;86.02;100844.72;5047032;28;20072;-71
2023/09/19 10:35:55;;;;;;;8.05;1.90;;;;;;;19.27;85.05;100841.50;5053960;28;20044;-72
2023/09/19 10:38:28;;;;;;;11.50;2.58;;;;;;;19.27;87.79;100854.78;5036655;28;20053;-73
2023/09/19 10:40:59;;;;;;;9.95;2.22;;;;;;;19.24;84.27;100866.63;5045596;28;20049;-71
2023/09/19 10:43:32;;;;;;;14.75;2.78;;;;;;;19.14;82.69;100864.38;5058109;28;20133;-72
2023/09/19 10:46:07;;;;;;;11.82;2.13;;;;;;;19.28;83.93;100854.56;5057385;28;20129;-71
2023/09/19 10:48:35;;;;;;;13.07;1.98;;;;;;;19.15;83.54;100860.69;5065071;28;20106;-72
2023/09/19 10:51:14;;;;;;;15.38;2.88;;;;;;;19.08;85.63;100856.41;5051950;28;20545;-71
2023/09/19 10:54:05;;;;;;;12.30;2.50;;;;;;;19.09;86.75;100850.88;5061557;28;20052;-71
2023/09/19 10:56:42;;;;;;;9.45;2.53;;;;;;;18.89;85.73;100850.00;5051919;28;20078;-72
2023/09/19 10:59:15;;;;;;;10.52;2.35;;;;;;;18.86;85.52;100845.09;5064819;28;20074;-72
2023/09/19 11:01:47;;;;;;;11.27;2.25;;;;;;;18.71;87.91;100831.94;5046253;28;20078;-71
2023/09/19 11:04:31;;;;;;;11.07;2.47;;;;;;;18.67;89.32;100843.97;5061040;28;20457;-70
2023/09/19 11:07:04;;;;;;;11.57;2.38;;;;;;;18.62;90.16;100841.94;5041222;28;20140;-71
2023/09/19 11:10:01;;;;;;;9.15;1.85;;;;;;;18.51;87.55;100845.97;5056979;28;20917;-71
2023/09/19 11:12:31;;;;;;;10.55;2.33;;;;;;;18.59;88.98;100837.00;5045190;28;20049;-71
2023/09/19 11:14:58;;;;;;;14.25;2.58;;;;;;;18.51;88.87;100818.59;5044923;28;20052;-70
2023/09/19 11:17:37;;;;;;;9.38;2.30;;;;;;;18.55;87.82;100815.31;5047235;28;20520;-71
2023/09/19 11:22:53;;;;;;;10.03;2.20;;;;;;;18.47;88.02;100810.19;5050177;28;20075;-70
2023/09/19 11:25:34;;;;;;;8.05;2.17;;;;;;;18.62;88.06;100802.09;5054584;28;20067;-71
2023/09/19 11:28:07;;;;;;;;;;;;;;;18.93;86.79;100814.03;5059147;28;20321;-70
2023/09/19 11:30:39;;;;;;;9.45;2.00;;;;;;;19.08;85.90;100811.19;5048678;28;19927;-71
2023/09/19 11:36:04;;;;;;;7.75;1.73;;;;;;;19.18;83.42;100790.34;5053743;28;20501;-72
2023/09/19 11:38:44;;;;;;;7.00;1.77;;;;;;;18.92;80.90;100821.19;5064040;28;20056;-71
2023/09/19 11:41:26;;;;;;;11.63;2.10;;;;;;;18.98;82.41;100798.31;5048220;28;20074;-74